sensor_id;sensor_type;location;lat;lon;timestamp;P1;durP1;ratioP1;P2;durP2;ratioP2
19482;SDS011;9882;51.166;6.992;2024-02-26T00:01:25;2.50;;;2.30;;
19482;SDS011;9882;51.166;6.992;2024-02-26T00:03:54;1.70;;;1.60;;
19482;SDS011;9882;51.166;6.992;2024-02-26T00:06:28;3.83;;;2.85;;
19482;SDS011;9882;51.166;6.992;2024-02-26T00:08:56;3.08;;;2.78;;
19482;SDS011;9882;51.166;6.992;2024-02-26T00:11:25;2.40;;;2.20;;
19482;SDS011;9882;51.166;6.992;2024-02-26T00:13:54;5.20;;;2.13;;
19482;SDS011;9882;51.166;6.992;2024-02-26T00:16:25;3.63;;;1.85;;
19482;SDS011;9882;51.166;6.992;2024-02-26T00:18:54;3.30;;;2.70;;
19482;SDS011;9882;51.166;6.992;2024-02-26T00:21:23;1.85;;;1.75;;
19482;SDS011;9882;51.166;6.992;2024-02-26T00:23:54;1.60;;;1.50;;
19482;SDS011;9882;51.166;6.992;2024-02-26T00:26:23;1.85;;;1.73;;
19482;SDS011;9882;51.166;6.992;2024-02-26T00:28:52;2.40;;;1.77;;
19482;SDS011;9882;51.166;6.992;2024-02-26T00:31:21;2.88;;;1.77;;
19482;SDS011;9882;51.166;6.992;2024-02-26T00:33:50;1.60;;;1.50;;
19482;SDS011;9882;51.166;6.992;2024-02-26T00:36:19;3.90;;;2.92;;
19482;SDS011;9882;51.166;6.992;2024-02-26T00:38:48;4.88;;;3.53;;
19482;SDS011;9882;51.166;6.992;2024-02-26T00:41:20;5.13;;;3.42;;
19482;SDS011;9882;51.166;6.992;2024-02-26T00:43:50;4.15;;;2.35;;
19482;SDS011;9882;51.166;6.992;2024-02-26T00:46:19;1.92;;;1.83;;
19482;SDS011;9882;51.166;6.992;2024-02-26T00:48:48;4.68;;;1.98;;
19482;SDS011;9882;51.166;6.992;2024-02-26T00:51:18;2.20;;;2.00;;
19482;SDS011;9882;51.166;6.992;2024-02-26T00:53:50;1.98;;;1.80;;
19482;SDS011;9882;51.166;6.992;2024-02-26T00:56:21;4.40;;;2.33;;
19482;SDS011;9882;51.166;6.992;2024-02-26T00:58:50;3.83;;;1.42;;
19482;SDS011;9882;51.166;6.992;2024-02-26T01:01:19;4.45;;;1.98;;
19482;SDS011;9882;51.166;6.992;2024-02-26T01:03:48;2.03;;;1.73;;
19482;SDS011;9882;51.166;6.992;2024-02-26T01:06:17;3.35;;;1.85;;
19482;SDS011;9882;51.166;6.992;2024-02-26T01:08:46;1.95;;;1.85;;
19482;SDS011;9882;51.166;6.992;2024-02-26T01:11:15;2.42;;;1.70;;
19482;SDS011;9882;51.166;6.992;2024-02-26T01:13:46;2.60;;;1.88;;
19482;SDS011;9882;51.166;6.992;2024-02-26T01:16:15;3.58;;;2.00;;
19482;SDS011;9882;51.166;6.992;2024-02-26T01:18:44;2.10;;;1.92;;
19482;SDS011;9882;51.166;6.992;2024-02-26T01:21:13;2.35;;;2.10;;
19482;SDS011;9882;51.166;6.992;2024-02-26T01:23:42;1.80;;;1.70;;
19482;SDS011;9882;51.166;6.992;2024-02-26T01:26:13;1.85;;;1.38;;
19482;SDS011;9882;51.166;6.992;2024-02-26T01:28:42;2.05;;;1.70;;
19482;SDS011;9882;51.166;6.992;2024-02-26T01:31:13;1.63;;;1.50;;
19482;SDS011;9882;51.166;6.992;2024-02-26T01:33:43;1.38;;;1.30;;
19482;SDS011;9882;51.166;6.992;2024-02-26T01:36:12;2.05;;;1.55;;
19482;SDS011;9882;51.166;6.992;2024-02-26T01:38:41;1.65;;;1.55;;
19482;SDS011;9882;51.166;6.992;2024-02-26T01:41:10;1.75;;;1.63;;
19482;SDS011;9882;51.166;6.992;2024-02-26T01:43:38;1.40;;;1.40;;
19482;SDS011;9882;51.166;6.992;2024-02-26T01:46:06;1.63;;;1.52;;
19482;SDS011;9882;51.166;6.992;2024-02-26T01:48:42;1.75;;;1.48;;
19482;SDS011;9882;51.166;6.992;2024-02-26T01:51:12;1.75;;;1.65;;
19482;SDS011;9882;51.166;6.992;2024-02-26T01:53:44;3.35;;;1.75;;
19482;SDS011;9882;51.166;6.992;2024-02-26T01:56:13;4.93;;;1.73;;
19482;SDS011;9882;51.166;6.992;2024-02-26T01:58:45;1.30;;;1.30;;
19482;SDS011;9882;51.166;6.992;2024-02-26T02:01:14;1.90;;;1.50;;
19482;SDS011;9882;51.166;6.992;2024-02-26T02:03:49;1.63;;;1.52;;
19482;SDS011;9882;51.166;6.992;2024-02-26T02:06:21;2.35;;;1.90;;
19482;SDS011;9882;51.166;6.992;2024-02-26T02:08:50;4.43;;;1.83;;
19482;SDS011;9882;51.166;6.992;2024-02-26T02:11:20;1.40;;;1.30;;
19482;SDS011;9882;51.166;6.992;2024-02-26T02:13:50;2.15;;;1.88;;
19482;SDS011;9882;51.166;6.992;2024-02-26T02:16:19;1.60;;;1.50;;
19482;SDS011;9882;51.166;6.992;2024-02-26T02:18:50;1.48;;;1.38;;
19482;SDS011;9882;51.166;6.992;2024-02-26T02:21:20;1.73;;;1.63;;
19482;SDS011;9882;51.166;6.992;2024-02-26T02:23:49;2.35;;;1.58;;
19482;SDS011;9882;51.166;6.992;2024-02-26T02:26:18;3.15;;;1.83;;
19482;SDS011;9882;51.166;6.992;2024-02-26T02:28:47;1.67;;;1.58;;
19482;SDS011;9882;51.166;6.992;2024-02-26T02:31:16;1.73;;;1.63;;
19482;SDS011;9882;51.166;6.992;2024-02-26T02:33:46;1.30;;;1.30;;
19482;SDS011;9882;51.166;6.992;2024-02-26T02:36:15;1.70;;;1.60;;
19482;SDS011;9882;51.166;6.992;2024-02-26T02:38:49;1.52;;;1.45;;
19482;SDS011;9882;51.166;6.992;2024-02-26T02:41:19;1.60;;;1.50;;
19482;SDS011;9882;51.166;6.992;2024-02-26T02:43:48;1.60;;;1.50;;
19482;SDS011;9882;51.166;6.992;2024-02-26T02:46:17;2.05;;;1.45;;
19482;SDS011;9882;51.166;6.992;2024-02-26T02:48:46;3.58;;;1.52;;
19482;SDS011;9882;51.166;6.992;2024-02-26T02:51:15;2.25;;;1.80;;
19482;SDS011;9882;51.166;6.992;2024-02-26T02:53:44;1.63;;;1.52;;
19482;SDS011;9882;51.166;6.992;2024-02-26T02:56:15;1.33;;;1.33;;
19482;SDS011;9882;51.166;6.992;2024-02-26T02:58:43;1.65;;;1.50;;
19482;SDS011;9882;51.166;6.992;2024-02-26T03:01:15;1.73;;;1.63;;
19482;SDS011;9882;51.166;6.992;2024-02-26T03:03:44;1.58;;;1.48;;
19482;SDS011;9882;51.166;6.992;2024-02-26T03:06:13;1.60;;;1.50;;
19482;SDS011;9882;51.166;6.992;2024-02-26T03:08:42;3.75;;;1.52;;
19482;SDS011;9882;51.166;6.992;2024-02-26T03:11:13;1.95;;;1.60;;
19482;SDS011;9882;51.166;6.992;2024-02-26T03:13:46;3.30;;;1.73;;
19482;SDS011;9882;51.166;6.992;2024-02-26T03:16:16;1.58;;;1.48;;
19482;SDS011;9882;51.166;6.992;2024-02-26T03:18:45;3.50;;;1.67;;
19482;SDS011;9882;51.166;6.992;2024-02-26T03:21:15;1.65;;;1.55;;
19482;SDS011;9882;51.166;6.992;2024-02-26T03:23:44;1.73;;;1.50;;
19482;SDS011;9882;51.166;6.992;2024-02-26T03:26:15;1.70;;;1.60;;
19482;SDS011;9882;51.166;6.992;2024-02-26T03:28:43;1.70;;;1.60;;
19482;SDS011;9882;51.166;6.992;2024-02-26T03:31:12;1.33;;;1.27;;
19482;SDS011;9882;51.166;6.992;2024-02-26T03:33:41;2.13;;;1.75;;
19482;SDS011;9882;51.166;6.992;2024-02-26T03:36:10;1.40;;;1.30;;
19482;SDS011;9882;51.166;6.992;2024-02-26T03:38:39;2.00;;;1.50;;
19482;SDS011;9882;51.166;6.992;2024-02-26T03:41:08;1.30;;;1.30;;
19482;SDS011;9882;51.166;6.992;2024-02-26T03:43:39;1.60;;;1.50;;
19482;SDS011;9882;51.166;6.992;2024-02-26T03:46:08;1.50;;;1.42;;
19482;SDS011;9882;51.166;6.992;2024-02-26T03:48:38;1.05;;;1.05;;
19482;SDS011;9882;51.166;6.992;2024-02-26T03:51:08;1.60;;;1.50;;
19482;SDS011;9882;51.166;6.992;2024-02-26T03:53:37;4.70;;;1.70;;
19482;SDS011;9882;51.166;6.992;2024-02-26T03:56:06;1.40;;;1.40;;
19482;SDS011;9882;51.166;6.992;2024-02-26T03:58:35;1.30;;;1.30;;
19482;SDS011;9882;51.166;6.992;2024-02-26T04:01:08;3.58;;;1.85;;
19482;SDS011;9882;51.166;6.992;2024-02-26T04:03:37;1.80;;;1.58;;
19482;SDS011;9882;51.166;6.992;2024-02-26T04:06:08;2.05;;;1.40;;
19482;SDS011;9882;51.166;6.992;2024-02-26T04:08:38;1.90;;;1.73;;
19482;SDS011;9882;51.166;6.992;2024-02-26T04:11:07;2.13;;;1.92;;
19482;SDS011;9882;51.166;6.992;2024-02-26T04:13:36;2.28;;;1.65;;
19482;SDS011;9882;51.166;6.992;2024-02-26T04:16:05;4.50;;;1.98;;
19482;SDS011;9882;51.166;6.992;2024-02-26T04:18:36;1.67;;;1.58;;
19482;SDS011;9882;51.166;6.992;2024-02-26T04:21:05;2.13;;;1.90;;
19482;SDS011;9882;51.166;6.992;2024-02-26T04:23:34;1.95;;;1.50;;
19482;SDS011;9882;51.166;6.992;2024-02-26T04:26:04;1.77;;;1.67;;
19482;SDS011;9882;51.166;6.992;2024-02-26T04:28:33;2.15;;;1.38;;
19482;SDS011;9882;51.166;6.992;2024-02-26T04:31:03;1.98;;;1.80;;
19482;SDS011;9882;51.166;6.992;2024-02-26T04:33:35;1.75;;;1.65;;
19482;SDS011;9882;51.166;6.992;2024-02-26T04:36:04;2.95;;;1.70;;
19482;SDS011;9882;51.166;6.992;2024-02-26T04:38:33;3.90;;;1.90;;
19482;SDS011;9882;51.166;6.992;2024-02-26T04:41:03;1.95;;;1.55;;
19482;SDS011;9882;51.166;6.992;2024-02-26T04:43:32;1.65;;;1.55;;
19482;SDS011;9882;51.166;6.992;2024-02-26T04:46:01;1.80;;;1.70;;
19482;SDS011;9882;51.166;6.992;2024-02-26T04:48:30;1.60;;;1.50;;
19482;SDS011;9882;51.166;6.992;2024-02-26T04:51:00;2.83;;;1.70;;
19482;SDS011;9882;51.166;6.992;2024-02-26T04:53:30;1.70;;;1.60;;
19482;SDS011;9882;51.166;6.992;2024-02-26T04:55:59;2.03;;;1.80;;
19482;SDS011;9882;51.166;6.992;2024-02-26T04:58:28;1.80;;;1.63;;
19482;SDS011;9882;51.166;6.992;2024-02-26T05:00:57;1.60;;;1.50;;
19482;SDS011;9882;51.166;6.992;2024-02-26T05:03:26;4.22;;;2.08;;
19482;SDS011;9882;51.166;6.992;2024-02-26T05:05:55;1.80;;;1.70;;
19482;SDS011;9882;51.166;6.992;2024-02-26T05:08:26;1.90;;;1.80;;
19482;SDS011;9882;51.166;6.992;2024-02-26T05:10:56;2.00;;;1.80;;
19482;SDS011;9882;51.166;6.992;2024-02-26T05:13:24;2.55;;;1.70;;
19482;SDS011;9882;51.166;6.992;2024-02-26T05:15:53;1.95;;;1.58;;
19482;SDS011;9882;51.166;6.992;2024-02-26T05:18:22;2.25;;;1.92;;
19482;SDS011;9882;51.166;6.992;2024-02-26T05:20:52;2.25;;;1.77;;
19482;SDS011;9882;51.166;6.992;2024-02-26T05:23:20;1.83;;;1.73;;
19482;SDS011;9882;51.166;6.992;2024-02-26T05:25:51;2.55;;;1.70;;
19482;SDS011;9882;51.166;6.992;2024-02-26T05:28:20;2.33;;;1.92;;
19482;SDS011;9882;51.166;6.992;2024-02-26T05:30:49;1.75;;;1.48;;
19482;SDS011;9882;51.166;6.992;2024-02-26T05:33:19;2.72;;;2.08;;
19482;SDS011;9882;51.166;6.992;2024-02-26T05:35:48;3.33;;;1.73;;
19482;SDS011;9882;51.166;6.992;2024-02-26T05:38:17;1.90;;;1.80;;
19482;SDS011;9882;51.166;6.992;2024-02-26T05:40:45;2.20;;;2.00;;
19482;SDS011;9882;51.166;6.992;2024-02-26T05:43:16;1.70;;;1.60;;
19482;SDS011;9882;51.166;6.992;2024-02-26T05:45:44;4.85;;;2.10;;
19482;SDS011;9882;51.166;6.992;2024-02-26T05:48:13;1.77;;;1.67;;
19482;SDS011;9882;51.166;6.992;2024-02-26T05:50:42;3.75;;;1.90;;
19482;SDS011;9882;51.166;6.992;2024-02-26T05:53:11;1.85;;;1.75;;
19482;SDS011;9882;51.166;6.992;2024-02-26T05:55:40;2.92;;;2.10;;
19482;SDS011;9882;51.166;6.992;2024-02-26T05:58:09;2.00;;;1.83;;
19482;SDS011;9882;51.166;6.992;2024-02-26T06:00:39;2.15;;;1.95;;
19482;SDS011;9882;51.166;6.992;2024-02-26T06:03:08;4.32;;;2.33;;
19482;SDS011;9882;51.166;6.992;2024-02-26T06:05:37;2.17;;;1.80;;
19482;SDS011;9882;51.166;6.992;2024-02-26T06:08:06;4.63;;;2.22;;
19482;SDS011;9882;51.166;6.992;2024-02-26T06:10:35;7.50;;;2.88;;
19482;SDS011;9882;51.166;6.992;2024-02-26T06:13:04;7.10;;;2.88;;
19482;SDS011;9882;51.166;6.992;2024-02-26T06:15:33;5.80;;;2.60;;
19482;SDS011;9882;51.166;6.992;2024-02-26T06:18:04;2.03;;;1.92;;
19482;SDS011;9882;51.166;6.992;2024-02-26T06:20:33;1.92;;;1.60;;
19482;SDS011;9882;51.166;6.992;2024-02-26T06:23:02;3.65;;;2.25;;
19482;SDS011;9882;51.166;6.992;2024-02-26T06:25:31;2.00;;;1.83;;
19482;SDS011;9882;51.166;6.992;2024-02-26T06:28:01;3.35;;;2.28;;
19482;SDS011;9882;51.166;6.992;2024-02-26T06:30:31;5.75;;;2.47;;
19482;SDS011;9882;51.166;6.992;2024-02-26T06:33:00;2.88;;;2.00;;
19482;SDS011;9882;51.166;6.992;2024-02-26T06:35:32;2.88;;;2.00;;
19482;SDS011;9882;51.166;6.992;2024-02-26T06:38:01;2.33;;;2.10;;
19482;SDS011;9882;51.166;6.992;2024-02-26T06:40:31;2.15;;;1.90;;
19482;SDS011;9882;51.166;6.992;2024-02-26T06:43:00;2.50;;;2.10;;
19482;SDS011;9882;51.166;6.992;2024-02-26T06:45:29;3.25;;;2.30;;
19482;SDS011;9882;51.166;6.992;2024-02-26T06:47:58;5.38;;;2.58;;
19482;SDS011;9882;51.166;6.992;2024-02-26T06:50:27;2.35;;;2.10;;
19482;SDS011;9882;51.166;6.992;2024-02-26T06:52:58;3.15;;;2.03;;
19482;SDS011;9882;51.166;6.992;2024-02-26T06:55:27;2.20;;;2.00;;
19482;SDS011;9882;51.166;6.992;2024-02-26T06:57:57;3.30;;;2.70;;
19482;SDS011;9882;51.166;6.992;2024-02-26T07:00:26;3.63;;;2.10;;
19482;SDS011;9882;51.166;6.992;2024-02-26T07:02:55;2.80;;;2.30;;
19482;SDS011;9882;51.166;6.992;2024-02-26T07:05:24;2.53;;;1.98;;
19482;SDS011;9882;51.166;6.992;2024-02-26T07:07:53;5.07;;;2.60;;
19482;SDS011;9882;51.166;6.992;2024-02-26T07:10:24;3.33;;;2.70;;
19482;SDS011;9882;51.166;6.992;2024-02-26T07:12:53;3.65;;;2.60;;
19482;SDS011;9882;51.166;6.992;2024-02-26T07:15:22;2.35;;;2.17;;
19482;SDS011;9882;51.166;6.992;2024-02-26T07:17:52;3.88;;;2.70;;
19482;SDS011;9882;51.166;6.992;2024-02-26T07:20:21;3.67;;;2.30;;
19482;SDS011;9882;51.166;6.992;2024-02-26T07:22:52;5.22;;;2.63;;
19482;SDS011;9882;51.166;6.992;2024-02-26T07:25:21;4.28;;;2.28;;
19482;SDS011;9882;51.166;6.992;2024-02-26T07:27:52;3.55;;;2.28;;
19482;SDS011;9882;51.166;6.992;2024-02-26T07:30:22;4.07;;;2.22;;
19482;SDS011;9882;51.166;6.992;2024-02-26T07:32:51;3.38;;;2.38;;
19482;SDS011;9882;51.166;6.992;2024-02-26T07:35:23;4.32;;;2.20;;
19482;SDS011;9882;51.166;6.992;2024-02-26T07:37:52;3.25;;;2.30;;
19482;SDS011;9882;51.166;6.992;2024-02-26T07:40:21;2.33;;;2.08;;
19482;SDS011;9882;51.166;6.992;2024-02-26T07:42:50;2.70;;;2.10;;
19482;SDS011;9882;51.166;6.992;2024-02-26T07:45:20;3.92;;;2.10;;
19482;SDS011;9882;51.166;6.992;2024-02-26T07:47:50;8.18;;;2.80;;
19482;SDS011;9882;51.166;6.992;2024-02-26T07:50:19;8.32;;;2.55;;
19482;SDS011;9882;51.166;6.992;2024-02-26T07:52:48;3.65;;;2.35;;
19482;SDS011;9882;51.166;6.992;2024-02-26T07:55:18;3.58;;;2.25;;
19482;SDS011;9882;51.166;6.992;2024-02-26T07:57:47;3.40;;;2.35;;
19482;SDS011;9882;51.166;6.992;2024-02-26T08:00:19;3.05;;;2.47;;
19482;SDS011;9882;51.166;6.992;2024-02-26T08:02:50;2.60;;;2.25;;
19482;SDS011;9882;51.166;6.992;2024-02-26T08:05:19;3.35;;;2.70;;
19482;SDS011;9882;51.166;6.992;2024-02-26T08:07:48;2.83;;;2.22;;
19482;SDS011;9882;51.166;6.992;2024-02-26T08:10:17;4.22;;;2.63;;
19482;SDS011;9882;51.166;6.992;2024-02-26T08:12:49;5.28;;;2.70;;
19482;SDS011;9882;51.166;6.992;2024-02-26T08:15:20;3.58;;;2.50;;
19482;SDS011;9882;51.166;6.992;2024-02-26T08:17:50;2.90;;;2.30;;
19482;SDS011;9882;51.166;6.992;2024-02-26T08:20:19;4.65;;;2.40;;
19482;SDS011;9882;51.166;6.992;2024-02-26T08:22:47;3.70;;;2.35;;
19482;SDS011;9882;51.166;6.992;2024-02-26T08:25:17;4.43;;;2.10;;
19482;SDS011;9882;51.166;6.992;2024-02-26T08:27:46;3.20;;;2.17;;
19482;SDS011;9882;51.166;6.992;2024-02-26T08:30:16;2.97;;;2.22;;
19482;SDS011;9882;51.166;6.992;2024-02-26T08:32:47;4.22;;;2.25;;
19482;SDS011;9882;51.166;6.992;2024-02-26T08:35:17;4.80;;;2.35;;
19482;SDS011;9882;51.166;6.992;2024-02-26T08:37:47;2.90;;;2.35;;
19482;SDS011;9882;51.166;6.992;2024-02-26T08:40:16;3.30;;;1.98;;
19482;SDS011;9882;51.166;6.992;2024-02-26T08:42:46;2.55;;;2.15;;
19482;SDS011;9882;51.166;6.992;2024-02-26T08:45:15;4.13;;;2.38;;
19482;SDS011;9882;51.166;6.992;2024-02-26T08:47:45;4.28;;;2.10;;
19482;SDS011;9882;51.166;6.992;2024-02-26T08:50:15;3.05;;;2.05;;
19482;SDS011;9882;51.166;6.992;2024-02-26T08:52:44;3.97;;;2.03;;
19482;SDS011;9882;51.166;6.992;2024-02-26T08:55:17;2.97;;;1.90;;
19482;SDS011;9882;51.166;6.992;2024-02-26T08:57:47;2.45;;;1.98;;
19482;SDS011;9882;51.166;6.992;2024-02-26T09:00:16;3.15;;;2.10;;
19482;SDS011;9882;51.166;6.992;2024-02-26T09:02:47;4.43;;;2.13;;
19482;SDS011;9882;51.166;6.992;2024-02-26T09:05:18;2.40;;;2.20;;
19482;SDS011;9882;51.166;6.992;2024-02-26T09:07:47;2.45;;;1.98;;
19482;SDS011;9882;51.166;6.992;2024-02-26T09:10:19;1.92;;;1.83;;
19482;SDS011;9882;51.166;6.992;2024-02-26T09:12:48;2.42;;;1.95;;
19482;SDS011;9882;51.166;6.992;2024-02-26T09:15:17;1.63;;;1.52;;
19482;SDS011;9882;51.166;6.992;2024-02-26T09:17:46;2.08;;;1.98;;
19482;SDS011;9882;51.166;6.992;2024-02-26T09:20:18;2.50;;;2.03;;
19482;SDS011;9882;51.166;6.992;2024-02-26T09:22:48;3.83;;;2.30;;
19482;SDS011;9882;51.166;6.992;2024-02-26T09:25:17;3.25;;;2.20;;
19482;SDS011;9882;51.166;6.992;2024-02-26T09:27:47;5.53;;;2.40;;
19482;SDS011;9882;51.166;6.992;2024-02-26T09:30:15;3.47;;;2.20;;
19482;SDS011;9882;51.166;6.992;2024-02-26T09:32:46;6.10;;;2.20;;
19482;SDS011;9882;51.166;6.992;2024-02-26T09:35:16;2.50;;;2.10;;
19482;SDS011;9882;51.166;6.992;2024-02-26T09:37:47;4.05;;;2.50;;
19482;SDS011;9882;51.166;6.992;2024-02-26T09:40:19;5.50;;;2.22;;
19482;SDS011;9882;51.166;6.992;2024-02-26T09:42:49;3.20;;;2.13;;
19482;SDS011;9882;51.166;6.992;2024-02-26T09:45:24;3.22;;;2.00;;
19482;SDS011;9882;51.166;6.992;2024-02-26T09:47:55;2.20;;;2.00;;
19482;SDS011;9882;51.166;6.992;2024-02-26T09:50:25;1.83;;;1.70;;
19482;SDS011;9882;51.166;6.992;2024-02-26T09:52:55;3.05;;;2.00;;
19482;SDS011;9882;51.166;6.992;2024-02-26T09:55:27;2.47;;;2.28;;
19482;SDS011;9882;51.166;6.992;2024-02-26T09:57:57;3.58;;;2.28;;
19482;SDS011;9882;51.166;6.992;2024-02-26T10:00:26;4.28;;;2.03;;
19482;SDS011;9882;51.166;6.992;2024-02-26T10:03:00;2.70;;;1.95;;
19482;SDS011;9882;51.166;6.992;2024-02-26T10:05:33;5.30;;;2.33;;
19482;SDS011;9882;51.166;6.992;2024-02-26T10:08:04;1.98;;;1.60;;
19482;SDS011;9882;51.166;6.992;2024-02-26T10:10:34;2.00;;;1.90;;
19482;SDS011;9882;51.166;6.992;2024-02-26T10:13:04;1.98;;;1.88;;
19482;SDS011;9882;51.166;6.992;2024-02-26T10:15:37;2.63;;;2.30;;
19482;SDS011;9882;51.166;6.992;2024-02-26T10:18:06;2.33;;;2.03;;
19482;SDS011;9882;51.166;6.992;2024-02-26T10:20:35;5.65;;;2.53;;
19482;SDS011;9882;51.166;6.992;2024-02-26T10:23:07;4.60;;;2.70;;
19482;SDS011;9882;51.166;6.992;2024-02-26T10:25:36;4.75;;;2.53;;
19482;SDS011;9882;51.166;6.992;2024-02-26T10:28:05;4.97;;;2.45;;
19482;SDS011;9882;51.166;6.992;2024-02-26T10:30:36;4.97;;;2.10;;
19482;SDS011;9882;51.166;6.992;2024-02-26T10:33:05;3.42;;;2.15;;
19482;SDS011;9882;51.166;6.992;2024-02-26T10:35:36;4.80;;;2.50;;
19482;SDS011;9882;51.166;6.992;2024-02-26T10:38:09;4.85;;;2.13;;
19482;SDS011;9882;51.166;6.992;2024-02-26T10:40:38;5.13;;;2.65;;
19482;SDS011;9882;51.166;6.992;2024-02-26T10:43:07;2.63;;;2.20;;
19482;SDS011;9882;51.166;6.992;2024-02-26T10:45:36;3.13;;;2.13;;
19482;SDS011;9882;51.166;6.992;2024-02-26T10:48:09;3.80;;;2.50;;
19482;SDS011;9882;51.166;6.992;2024-02-26T10:50:40;4.68;;;2.50;;
19482;SDS011;9882;51.166;6.992;2024-02-26T10:53:13;9.68;;;2.80;;
19482;SDS011;9882;51.166;6.992;2024-02-26T10:55:47;4.93;;;2.90;;
19482;SDS011;9882;51.166;6.992;2024-02-26T10:58:18;3.47;;;2.53;;
19482;SDS011;9882;51.166;6.992;2024-02-26T11:00:47;4.22;;;2.67;;
19482;SDS011;9882;51.166;6.992;2024-02-26T11:03:18;6.43;;;2.72;;
19482;SDS011;9882;51.166;6.992;2024-02-26T11:05:49;6.30;;;2.33;;
19482;SDS011;9882;51.166;6.992;2024-02-26T11:08:21;4.13;;;2.50;;
19482;SDS011;9882;51.166;6.992;2024-02-26T11:10:52;8.00;;;3.20;;
19482;SDS011;9882;51.166;6.992;2024-02-26T11:13:22;7.13;;;3.05;;
19482;SDS011;9882;51.166;6.992;2024-02-26T11:15:56;5.07;;;2.60;;
19482;SDS011;9882;51.166;6.992;2024-02-26T11:18:28;7.22;;;2.90;;
19482;SDS011;9882;51.166;6.992;2024-02-26T11:20:59;5.15;;;2.55;;
19482;SDS011;9882;51.166;6.992;2024-02-26T11:23:31;5.03;;;2.55;;
19482;SDS011;9882;51.166;6.992;2024-02-26T11:26:03;3.45;;;2.47;;
19482;SDS011;9882;51.166;6.992;2024-02-26T11:28:34;6.60;;;2.95;;
19482;SDS011;9882;51.166;6.992;2024-02-26T11:31:03;4.63;;;2.70;;
19482;SDS011;9882;51.166;6.992;2024-02-26T11:33:34;4.05;;;2.80;;
19482;SDS011;9882;51.166;6.992;2024-02-26T11:36:07;5.10;;;2.40;;
19482;SDS011;9882;51.166;6.992;2024-02-26T11:38:40;5.60;;;2.67;;
19482;SDS011;9882;51.166;6.992;2024-02-26T11:41:09;8.02;;;3.50;;
19482;SDS011;9882;51.166;6.992;2024-02-26T11:43:51;5.80;;;2.55;;
19482;SDS011;9882;51.166;6.992;2024-02-26T11:46:27;5.53;;;2.95;;
19482;SDS011;9882;51.166;6.992;2024-02-26T11:48:58;6.75;;;2.90;;
19482;SDS011;9882;51.166;6.992;2024-02-26T11:51:32;4.05;;;3.10;;
19482;SDS011;9882;51.166;6.992;2024-02-26T11:54:05;10.02;;;3.38;;
19482;SDS011;9882;51.166;6.992;2024-02-26T11:56:34;3.60;;;2.47;;
19482;SDS011;9882;51.166;6.992;2024-02-26T11:59:03;7.22;;;2.75;;
19482;SDS011;9882;51.166;6.992;2024-02-26T12:01:41;2.83;;;2.45;;
19482;SDS011;9882;51.166;6.992;2024-02-26T12:04:13;3.63;;;2.72;;
19482;SDS011;9882;51.166;6.992;2024-02-26T12:06:45;3.42;;;2.53;;
19482;SDS011;9882;51.166;6.992;2024-02-26T12:09:33;5.97;;;2.72;;
19482;SDS011;9882;51.166;6.992;2024-02-26T12:12:03;7.47;;;3.20;;
19482;SDS011;9882;51.166;6.992;2024-02-26T12:14:36;3.28;;;2.65;;
19482;SDS011;9882;51.166;6.992;2024-02-26T12:17:06;7.43;;;3.13;;
19482;SDS011;9882;51.166;6.992;2024-02-26T12:19:36;8.43;;;3.58;;
19482;SDS011;9882;51.166;6.992;2024-02-26T12:22:06;6.15;;;3.25;;
19482;SDS011;9882;51.166;6.992;2024-02-26T12:24:37;6.03;;;3.03;;
19482;SDS011;9882;51.166;6.992;2024-02-26T12:27:06;4.47;;;3.10;;
19482;SDS011;9882;51.166;6.992;2024-02-26T12:29:35;5.38;;;3.25;;
19482;SDS011;9882;51.166;6.992;2024-02-26T12:32:04;8.52;;;3.85;;
19482;SDS011;9882;51.166;6.992;2024-02-26T12:34:34;11.90;;;4.60;;
19482;SDS011;9882;51.166;6.992;2024-02-26T12:37:03;13.57;;;3.65;;
19482;SDS011;9882;51.166;6.992;2024-02-26T12:39:34;6.93;;;3.70;;
19482;SDS011;9882;51.166;6.992;2024-02-26T12:42:04;8.27;;;3.85;;
19482;SDS011;9882;51.166;6.992;2024-02-26T12:44:34;8.18;;;3.70;;
19482;SDS011;9882;51.166;6.992;2024-02-26T12:47:04;8.60;;;4.10;;
19482;SDS011;9882;51.166;6.992;2024-02-26T12:49:33;8.73;;;4.03;;
19482;SDS011;9882;51.166;6.992;2024-02-26T12:52:02;8.60;;;3.90;;
19482;SDS011;9882;51.166;6.992;2024-02-26T12:54:33;8.23;;;4.22;;
19482;SDS011;9882;51.166;6.992;2024-02-26T12:57:07;12.32;;;3.70;;
19482;SDS011;9882;51.166;6.992;2024-02-26T12:59:37;7.97;;;4.03;;
19482;SDS011;9882;51.166;6.992;2024-02-26T13:02:07;11.65;;;4.57;;
19482;SDS011;9882;51.166;6.992;2024-02-26T13:04:39;15.32;;;4.63;;
19482;SDS011;9882;51.166;6.992;2024-02-26T13:07:08;11.80;;;4.80;;
19482;SDS011;9882;51.166;6.992;2024-02-26T13:09:38;7.65;;;3.72;;
19482;SDS011;9882;51.166;6.992;2024-02-26T13:12:09;16.80;;;5.53;;
19482;SDS011;9882;51.166;6.992;2024-02-26T13:14:40;10.52;;;4.35;;
19482;SDS011;9882;51.166;6.992;2024-02-26T13:17:09;12.73;;;4.93;;
19482;SDS011;9882;51.166;6.992;2024-02-26T13:19:48;14.65;;;5.05;;
19482;SDS011;9882;51.166;6.992;2024-02-26T13:22:17;7.38;;;4.00;;
19482;SDS011;9882;51.166;6.992;2024-02-26T13:24:53;15.93;;;5.40;;
19482;SDS011;9882;51.166;6.992;2024-02-26T13:27:25;9.68;;;4.93;;
19482;SDS011;9882;51.166;6.992;2024-02-26T13:32:41;15.25;;;5.45;;
19482;SDS011;9882;51.166;6.992;2024-02-26T13:35:11;19.02;;;5.57;;
19482;SDS011;9882;51.166;6.992;2024-02-26T13:37:41;15.70;;;5.90;;
19482;SDS011;9882;51.166;6.992;2024-02-26T13:40:10;11.35;;;4.55;;
19482;SDS011;9882;51.166;6.992;2024-02-26T13:42:41;12.20;;;4.93;;
19482;SDS011;9882;51.166;6.992;2024-02-26T13:45:10;13.00;;;5.20;;
19482;SDS011;9882;51.166;6.992;2024-02-26T13:47:39;15.98;;;5.68;;
19482;SDS011;9882;51.166;6.992;2024-02-26T13:50:08;15.43;;;5.85;;
19482;SDS011;9882;51.166;6.992;2024-02-26T13:52:38;14.20;;;5.13;;
19482;SDS011;9882;51.166;6.992;2024-02-26T13:55:07;14.30;;;4.78;;
19482;SDS011;9882;51.166;6.992;2024-02-26T13:57:36;16.48;;;5.03;;
19482;SDS011;9882;51.166;6.992;2024-02-26T14:00:08;11.57;;;5.45;;
19482;SDS011;9882;51.166;6.992;2024-02-26T14:02:40;16.10;;;5.32;;
19482;SDS011;9882;51.166;6.992;2024-02-26T14:05:09;12.80;;;4.50;;
19482;SDS011;9882;51.166;6.992;2024-02-26T14:07:43;13.95;;;5.60;;
19482;SDS011;9882;51.166;6.992;2024-02-26T14:10:14;9.88;;;4.35;;
19482;SDS011;9882;51.166;6.992;2024-02-26T14:12:46;16.88;;;5.38;;
19482;SDS011;9882;51.166;6.992;2024-02-26T14:15:17;15.20;;;5.05;;
19482;SDS011;9882;51.166;6.992;2024-02-26T14:17:47;14.77;;;5.55;;
19482;SDS011;9882;51.166;6.992;2024-02-26T14:20:24;15.52;;;5.20;;
19482;SDS011;9882;51.166;6.992;2024-02-26T14:22:54;12.13;;;4.45;;
19482;SDS011;9882;51.166;6.992;2024-02-26T14:25:26;11.00;;;4.70;;
19482;SDS011;9882;51.166;6.992;2024-02-26T14:27:57;11.15;;;4.38;;
19482;SDS011;9882;51.166;6.992;2024-02-26T14:30:27;11.25;;;4.78;;
19482;SDS011;9882;51.166;6.992;2024-02-26T14:32:56;10.07;;;4.45;;
19482;SDS011;9882;51.166;6.992;2024-02-26T14:35:25;13.60;;;5.07;;
19482;SDS011;9882;51.166;6.992;2024-02-26T14:37:55;14.18;;;5.00;;
19482;SDS011;9882;51.166;6.992;2024-02-26T14:40:27;14.57;;;4.88;;
19482;SDS011;9882;51.166;6.992;2024-02-26T14:42:57;11.20;;;4.75;;
19482;SDS011;9882;51.166;6.992;2024-02-26T14:45:29;9.13;;;4.70;;
19482;SDS011;9882;51.166;6.992;2024-02-26T14:47:58;13.50;;;4.72;;
19482;SDS011;9882;51.166;6.992;2024-02-26T14:50:27;9.88;;;4.55;;
19482;SDS011;9882;51.166;6.992;2024-02-26T14:52:56;12.30;;;5.20;;
19482;SDS011;9882;51.166;6.992;2024-02-26T14:55:25;12.57;;;4.70;;
19482;SDS011;9882;51.166;6.992;2024-02-26T14:57:54;10.88;;;4.22;;
19482;SDS011;9882;51.166;6.992;2024-02-26T15:00:24;12.20;;;4.88;;
19482;SDS011;9882;51.166;6.992;2024-02-26T15:02:55;11.88;;;4.93;;
19482;SDS011;9882;51.166;6.992;2024-02-26T15:05:24;11.80;;;4.55;;
19482;SDS011;9882;51.166;6.992;2024-02-26T15:07:53;14.55;;;4.88;;
19482;SDS011;9882;51.166;6.992;2024-02-26T15:10:22;8.02;;;4.45;;
19482;SDS011;9882;51.166;6.992;2024-02-26T15:12:51;12.25;;;4.53;;
19482;SDS011;9882;51.166;6.992;2024-02-26T15:15:22;11.23;;;4.78;;
19482;SDS011;9882;51.166;6.992;2024-02-26T15:17:51;13.70;;;5.15;;
19482;SDS011;9882;51.166;6.992;2024-02-26T15:20:22;11.02;;;4.90;;